Time;durP1;ratioP1;P1;durP2;ratioP2;P2;SDS_P1;SDS_P2;PMS_P1;PMS_P2;Temp;Humidity;BMP_temperature;BMP_pressure;BME280_temperature;BME280_humidity;BME280_pressure;Samples;Min_cycle;Max_cycle;Signal;HPM_P1;HPM_P2
2022/06/28 00:01:12;;;;;;;1.40;1.00;;;;;;;;;;4998070;28;20292;-59
2022/06/28 00:03:41;;;;;;;0.80;0.80;;;;;;;;;;4998070;28;20727;-59
2022/06/28 00:06:09;;;;;;;1.10;0.70;;;;;;;;;;4997778;28;20268;-59
2022/06/28 00:08:37;;;;;;;0.80;0.80;;;;;;;;;;4998297;28;20201;-59
2022/06/28 00:11:05;;;;;;;1.37;1.00;;;;;;;;;;4997884;28;20243;-59
2022/06/28 00:13:34;;;;;;;0.93;0.80;;;;;;;;;;4997916;28;20312;-59
2022/06/28 00:16:08;;;;;;;3.57;0.83;;;;;;;;;;5000264;28;20259;-59
2022/06/28 00:18:37;;;;;;;0.80;0.80;;;;;;;;;;5007808;28;20228;-59
2022/06/28 00:21:07;;;;;;;1.50;0.80;;;;;;;;;;4997939;28;20213;-59
2022/06/28 00:23:35;;;;;;;0.80;0.80;;;;;;;;;;5013460;28;20258;-59
2022/06/28 00:26:03;;;;;;;1.33;0.70;;;;;;;;;;5001963;28;20244;-59
2022/06/28 00:28:31;;;;;;;0.90;0.90;;;;;;;;;;4998190;28;20235;-59
2022/06/28 00:31:01;;;;;;;1.50;0.80;;;;;;;;;;5000693;28;20246;-59
2022/06/28 00:33:29;;;;;;;0.97;0.80;;;;;;;;;;5002255;28;20235;-59
2022/06/28 00:35:58;;;;;;;1.60;0.70;;;;;;;;;;5002793;28;20552;-59
2022/06/28 00:38:26;;;;;;;1.00;0.90;;;;;;;;;;5002117;28;20263;-59
2022/06/28 00:40:54;;;;;;;0.90;0.90;;;;;;;;;;5001783;28;20237;-59
2022/06/28 00:43:22;;;;;;;2.00;0.80;;;;;;;;;;5004799;28;20582;-59
2022/06/28 00:45:51;;;;;;;2.53;0.80;;;;;;;;;;5014509;28;20236;-59
2022/06/28 00:48:22;;;;;;;1.10;0.83;;;;;;;;;;5001789;28;20209;-59
2022/06/28 00:50:50;;;;;;;0.77;0.77;;;;;;;;;;5001258;28;20583;-59
2022/06/28 00:53:19;;;;;;;0.80;0.80;;;;;;;;;;5001361;28;20233;-59
2022/06/28 00:55:47;;;;;;;0.70;0.70;;;;;;;;;;5001558;28;20209;-59
2022/06/28 00:58:16;;;;;;;2.00;0.80;;;;;;;;;;5001156;28;20268;-59
2022/06/28 01:00:45;;;;;;;0.83;0.70;;;;;;;;;;5001337;28;20680;-59
2022/06/28 01:03:15;;;;;;;0.67;0.67;;;;;;;;;;5001290;28;20287;-59
2022/06/28 01:05:44;;;;;;;0.90;0.90;;;;;;;;;;5001252;28;20211;-59
2022/06/28 01:08:13;;;;;;;2.83;0.87;;;;;;;;;;5001424;28;20232;-59
2022/06/28 01:10:41;;;;;;;0.83;0.70;;;;;;;;;;5001221;28;20215;-59
2022/06/28 01:13:10;;;;;;;0.70;0.70;;;;;;;;;;5001064;28;20260;-59
2022/06/28 01:15:39;;;;;;;3.93;0.77;;;;;;;;;;5001358;28;20236;-59
2022/06/28 01:18:09;;;;;;;0.90;0.90;;;;;;;;;;5014440;28;20233;-59
2022/06/28 01:20:37;;;;;;;1.43;0.83;;;;;;;;;;5001260;28;20251;-59
2022/06/28 01:23:06;;;;;;;1.03;0.77;;;;;;;;;;5010895;28;20250;-59
2022/06/28 01:25:35;;;;;;;0.60;0.60;;;;;;;;;;5013014;28;20259;-59
2022/06/28 01:28:03;;;;;;;1.53;0.60;;;;;;;;;;5001026;28;20236;-60
2022/06/28 01:30:31;;;;;;;1.40;0.70;;;;;;;;;;5000599;28;20690;-59
2022/06/28 01:32:59;;;;;;;0.60;0.50;;;;;;;;;;5000736;28;20240;-59
2022/06/28 01:35:27;;;;;;;0.70;0.70;;;;;;;;;;5003502;28;20205;-59
2022/06/28 01:37:56;;;;;;;1.00;0.87;;;;;;;;;;5000238;28;20225;-59
2022/06/28 01:40:26;;;;;;;1.00;0.67;;;;;;;;;;5000510;28;20247;-59
2022/06/28 01:42:55;;;;;;;0.83;0.73;;;;;;;;;;5000375;28;20205;-59
2022/06/28 01:45:23;;;;;;;0.73;0.73;;;;;;;;;;5003739;28;20661;-59
2022/06/28 01:47:51;;;;;;;0.57;0.57;;;;;;;;;;5000726;28;20240;-59
2022/06/28 01:50:19;;;;;;;0.70;0.70;;;;;;;;;;5000617;28;20248;-59
2022/06/28 01:52:47;;;;;;;1.03;0.63;;;;;;;;;;5000303;28;20213;-59
2022/06/28 01:55:15;;;;;;;1.50;0.70;;;;;;;;;;5000145;28;20212;-59
2022/06/28 01:57:45;;;;;;;0.70;0.70;;;;;;;;;;4999998;28;20334;-59
2022/06/28 02:00:13;;;;;;;2.07;0.60;;;;;;;;;;5000472;28;20233;-59
2022/06/28 02:02:41;;;;;;;0.70;0.70;;;;;;;;;;5000025;28;20236;-59
2022/06/28 02:05:10;;;;;;;1.33;0.73;;;;;;;;;;5000137;28;20217;-59
2022/06/28 02:07:46;;;;;;;0.60;0.60;;;;;;;;;;4999862;28;20209;-59
2022/06/28 02:10:14;;;;;;;1.70;1.07;;;;;;;;;;5007094;28;20303;-59
2022/06/28 02:12:42;;;;;;;2.27;0.97;;;;;;;;;;5019574;28;20212;-59
2022/06/28 02:15:12;;;;;;;0.80;0.80;;;;;;;;;;5019566;28;20703;-59
2022/06/28 02:17:40;;;;;;;0.80;0.80;;;;;;;;;;5016914;28;20576;-59
2022/06/28 02:20:08;;;;;;;1.00;0.60;;;;;;;;;;4999897;28;20267;-59
2022/06/28 02:22:37;;;;;;;1.90;0.90;;;;;;;;;;4999620;28;20618;-59
2022/06/28 02:25:06;;;;;;;1.07;0.83;;;;;;;;;;5000044;28;20215;-59
2022/06/28 02:27:34;;;;;;;0.83;0.60;;;;;;;;;;4999686;28;20858;-59
2022/06/28 02:30:02;;;;;;;1.40;0.80;;;;;;;;;;4999913;28;20244;-59
2022/06/28 02:32:31;;;;;;;1.20;1.00;;;;;;;;;;4999824;28;20240;-59
2022/06/28 02:40:30;;;;;;;3.90;0.97;;;;;;;;;;5019236;28;20236;-59
2022/06/28 02:42:59;;;;;;;1.37;0.80;;;;;;;;;;5019224;28;20219;-59
2022/06/28 02:45:28;;;;;;;2.37;0.67;;;;;;;;;;4999148;28;20204;-59
2022/06/28 02:47:57;;;;;;;1.47;0.80;;;;;;;;;;4999572;28;20205;-59
2022/06/28 02:50:26;;;;;;;1.40;1.30;;;;;;;;;;4999161;28;20204;-59
2022/06/28 02:52:54;;;;;;;1.83;1.00;;;;;;;;;;4998550;28;20271;-59
2022/06/28 02:55:22;;;;;;;0.93;0.87;;;;;;;;;;4999199;28;20212;-59
2022/06/28 02:57:50;;;;;;;2.50;0.63;;;;;;;;;;4998997;28;20307;-59
2022/06/28 03:00:19;;;;;;;1.87;0.87;;;;;;;;;;5005388;28;20294;-59
2022/06/28 03:02:48;;;;;;;0.90;0.90;;;;;;;;;;5018489;28;20255;-59
2022/06/28 03:05:19;;;;;;;2.77;0.90;;;;;;;;;;5018837;28;20224;-59
2022/06/28 03:07:47;;;;;;;1.50;0.97;;;;;;;;;;5018528;28;20208;-59
2022/06/28 03:10:15;;;;;;;0.90;0.80;;;;;;;;;;5018579;28;20235;-59
2022/06/28 03:12:43;;;;;;;1.97;1.07;;;;;;;;;;5018566;28;20215;-59
2022/06/28 03:15:13;;;;;;;1.47;0.80;;;;;;;;;;5018471;28;20234;-59
2022/06/28 03:17:47;;;;;;;2.27;1.03;;;;;;;;;;5015017;28;20204;-59
2022/06/28 03:20:17;;;;;;;1.97;1.00;;;;;;;;;;4998705;28;20267;-59
2022/06/28 03:22:45;;;;;;;2.23;0.90;;;;;;;;;;5000129;28;20209;-59
2022/06/28 03:25:13;;;;;;;1.07;0.80;;;;;;;;;;5015804;28;20676;-59
2022/06/28 03:27:41;;;;;;;1.73;1.30;;;;;;;;;;4998689;28;20243;-59
2022/06/28 03:30:09;;;;;;;1.30;1.00;;;;;;;;;;4998986;28;20204;-59
2022/06/28 03:32:37;;;;;;;0.83;0.83;;;;;;;;;;4998684;28;20212;-59
2022/06/28 03:35:06;;;;;;;0.70;0.70;;;;;;;;;;5001368;28;20236;-59
2022/06/28 03:37:35;;;;;;;2.00;0.97;;;;;;;;;;4997927;28;20240;-59
2022/06/28 03:40:04;;;;;;;3.37;1.13;;;;;;;;;;4998189;28;20231;-59
2022/06/28 03:42:32;;;;;;;1.70;0.67;;;;;;;;;;5005152;28;20212;-59
2022/06/28 03:45:00;;;;;;;1.30;0.83;;;;;;;;;;5004702;28;20229;-59
2022/06/28 03:47:28;;;;;;;2.20;1.07;;;;;;;;;;4998575;28;20213;-59
2022/06/28 03:49:56;;;;;;;1.10;0.73;;;;;;;;;;4998496;28;20231;-59
2022/06/28 03:52:28;;;;;;;0.97;0.70;;;;;;;;;;4998332;28;20296;-59
2022/06/28 03:54:58;;;;;;;1.63;1.00;;;;;;;;;;4998239;28;20292;-59
2022/06/28 03:57:27;;;;;;;3.60;1.10;;;;;;;;;;4997822;28;20291;-59
2022/06/28 03:59:56;;;;;;;1.90;0.90;;;;;;;;;;4998065;28;20263;-59
2022/06/28 04:02:24;;;;;;;1.17;0.87;;;;;;;;;;4998077;28;20208;-59
2022/06/28 04:04:53;;;;;;;2.50;0.63;;;;;;;;;;4997889;28;20582;-59
2022/06/28 04:07:20;;;;;;;1.20;1.00;;;;;;;;;;4997879;28;20216;-59
2022/06/28 04:09:48;;;;;;;0.80;0.80;;;;;;;;;;4998052;28;20273;-59
2022/06/28 04:12:18;;;;;;;2.37;1.00;;;;;;;;;;4998217;28;20240;-59
2022/06/28 04:14:46;;;;;;;1.20;0.90;;;;;;;;;;4997872;28;20260;-59
2022/06/28 04:17:14;;;;;;;1.90;0.93;;;;;;;;;;5010279;28;20656;-59
2022/06/28 04:19:42;;;;;;;2.30;1.07;;;;;;;;;;4998759;28;20243;-59
2022/06/28 04:22:10;;;;;;;1.30;0.90;;;;;;;;;;4998014;28;20275;-59
2022/06/28 04:24:38;;;;;;;2.67;0.87;;;;;;;;;;5018365;28;20264;-59
2022/06/28 04:27:06;;;;;;;2.20;0.90;;;;;;;;;;4998024;28;20247;-59
2022/06/28 04:29:36;;;;;;;2.93;0.93;;;;;;;;;;5004506;28;20239;-59
2022/06/28 04:32:04;;;;;;;0.60;0.60;;;;;;;;;;5017389;28;20636;-59
2022/06/28 04:34:32;;;;;;;2.20;0.83;;;;;;;;;;5011183;28;20235;-59
2022/06/28 04:37:00;;;;;;;2.23;1.10;;;;;;;;;;4997654;28;20208;-59
2022/06/28 04:39:28;;;;;;;0.90;0.90;;;;;;;;;;4997803;28;20256;-59
2022/06/28 04:41:56;;;;;;;1.07;1.00;;;;;;;;;;4997702;28;20646;-59
2022/06/28 04:44:24;;;;;;;3.77;1.03;;;;;;;;;;5001371;28;20232;-59
2022/06/28 04:46:54;;;;;;;4.70;1.20;;;;;;;;;;4997745;28;20247;-59
2022/06/28 04:49:22;;;;;;;6.53;3.47;;;;;;;;;;4997840;28;20211;-59
2022/06/28 04:51:50;;;;;;;1.67;1.30;;;;;;;;;;4997465;28;20213;-59
2022/06/28 04:54:18;;;;;;;4.43;1.10;;;;;;;;;;4997543;28;20247;-59
2022/06/28 04:56:46;;;;;;;2.00;1.13;;;;;;;;;;4997515;28;20236;-59
2022/06/28 04:59:14;;;;;;;1.93;1.10;;;;;;;;;;4997930;28;20244;-59
2022/06/28 05:01:42;;;;;;;1.83;0.90;;;;;;;;;;4997421;28;20739;-59
2022/06/28 05:04:11;;;;;;;4.57;1.30;;;;;;;;;;4997338;28;20235;-59
2022/06/28 05:06:40;;;;;;;4.53;1.30;;;;;;;;;;4997096;28;20260;-59
2022/06/28 05:09:07;;;;;;;2.70;1.40;;;;;;;;;;4997835;28;20216;-59
2022/06/28 05:11:55;;;;;;;2.30;1.23;;;;;;;;;;4997622;28;20209;-59
2022/06/28 05:14:23;;;;;;;1.50;1.40;;;;;;;;;;4997416;28;20263;-59
2022/06/28 05:16:51;;;;;;;2.60;1.07;;;;;;;;;;5008532;28;20276;-59
2022/06/28 05:19:21;;;;;;;1.37;1.00;;;;;;;;;;5005130;28;20240;-59
2022/06/28 05:21:49;;;;;;;3.73;1.47;;;;;;;;;;5000906;28;20275;-59
2022/06/28 05:24:17;;;;;;;2.37;1.27;;;;;;;;;;5019834;28;20260;-59
2022/06/28 05:26:45;;;;;;;5.13;1.40;;;;;;;;;;5000824;28;20669;-59
2022/06/28 05:29:13;;;;;;;3.20;1.43;;;;;;;;;;5000923;28;20220;-59
2022/06/28 05:31:41;;;;;;;2.67;1.37;;;;;;;;;;5000961;28;20253;-59
2022/06/28 05:34:09;;;;;;;3.17;1.40;;;;;;;;;;5001197;28;20227;-59
2022/06/28 05:36:39;;;;;;;2.20;0.90;;;;;;;;;;5000360;28;20209;-59
2022/06/28 05:39:07;;;;;;;1.90;1.40;;;;;;;;;;5000258;28;20673;-59
2022/06/28 05:41:35;;;;;;;2.23;1.40;;;;;;;;;;5000633;28;20271;-59
2022/06/28 05:44:04;;;;;;;3.03;1.30;;;;;;;;;;5002778;28;20236;-59
2022/06/28 05:46:33;;;;;;;5.27;1.37;;;;;;;;;;5000551;28;20213;-59
2022/06/28 05:49:01;;;;;;;5.00;1.30;;;;;;;;;;5000594;28;20215;-59
2022/06/28 05:51:29;;;;;;;1.27;1.20;;;;;;;;;;5000102;28;20209;-59
2022/06/28 05:53:59;;;;;;;2.60;1.40;;;;;;;;;;5000213;28;20236;-58
2022/06/28 05:56:27;;;;;;;3.70;1.80;;;;;;;;;;4999985;28;20212;-58
2022/06/28 05:58:55;;;;;;;5.37;1.90;;;;;;;;;;5000321;28;20237;-58
2022/06/28 06:01:25;;;;;;;2.10;1.47;;;;;;;;;;5000028;28;20233;-59
2022/06/28 06:03:54;;;;;;;5.30;1.50;;;;;;;;;;5000129;28;20267;-58
2022/06/28 06:06:23;;;;;;;4.40;1.53;;;;;;;;;;5000016;28;20215;-58
2022/06/28 06:08:51;;;;;;;3.27;1.33;;;;;;;;;;5000087;28;20233;-58
2022/06/28 06:11:21;;;;;;;5.57;1.80;;;;;;;;;;4999996;28;20201;-60
2022/06/28 06:13:49;;;;;;;3.77;2.50;;;;;;;;;;4999915;28;20260;-60
2022/06/28 06:16:17;;;;;;;1.70;1.60;;;;;;;;;;5004166;28;20253;-59
2022/06/28 06:18:45;;;;;;;6.53;1.93;;;;;;;;;;5008661;28;20272;-58
2022/06/28 06:21:13;;;;;;;2.17;1.47;;;;;;;;;;4999764;28;20283;-58
2022/06/28 06:23:41;;;;;;;2.10;1.57;;;;;;;;;;5017040;28;20235;-59
2022/06/28 06:26:09;;;;;;;2.77;1.87;;;;;;;;;;5001680;28;20212;-60
2022/06/28 06:28:38;;;;;;;4.03;1.80;;;;;;;;;;4998621;28;20209;-60
2022/06/28 06:31:09;;;;;;;6.07;1.60;;;;;;;;;;4999847;28;20216;-60
2022/06/28 06:33:37;;;;;;;2.10;1.40;;;;;;;;;;5001816;28;20660;-60
2022/06/28 06:36:05;;;;;;;2.60;1.80;;;;;;;;;;4999213;28;20562;-58
2022/06/28 06:38:33;;;;;;;4.63;1.30;;;;;;;;;;4999430;28;20209;-59
2022/06/28 06:41:01;;;;;;;4.47;1.60;;;;;;;;;;4999403;28;20260;-60
2022/06/28 06:43:29;;;;;;;4.03;1.77;;;;;;;;;;5002319;28;20228;-60
2022/06/28 06:45:59;;;;;;;2.90;1.33;;;;;;;;;;4999317;28;20209;-60
2022/06/28 06:48:27;;;;;;;1.77;1.67;;;;;;;;;;4999065;28;20243;-60
2022/06/28 06:50:55;;;;;;;5.33;1.70;;;;;;;;;;4999342;28;20217;-60
2022/06/28 06:53:23;;;;;;;3.27;1.73;;;;;;;;;;4999533;28;20325;-58
2022/06/28 06:55:51;;;;;;;4.67;1.80;;;;;;;;;;4999229;28;20240;-58
2022/06/28 06:58:19;;;;;;;3.77;2.00;;;;;;;;;;4998845;28;20245;-58
2022/06/28 07:00:49;;;;;;;3.23;1.40;;;;;;;;;;4999040;28;20633;-58
2022/06/28 07:03:19;;;;;;;2.10;1.50;;;;;;;;;;4999126;28;20228;-58
2022/06/28 07:05:47;;;;;;;4.13;1.93;;;;;;;;;;4998769;28;20209;-59
2022/06/28 07:08:15;;;;;;;1.67;1.30;;;;;;;;;;4998996;28;20221;-58
2022/06/28 07:10:43;;;;;;;2.60;1.50;;;;;;;;;;4999004;28;20236;-60
2022/06/28 07:13:11;;;;;;;8.73;2.13;;;;;;;;;;4998942;28;20300;-58
2022/06/28 07:15:39;;;;;;;6.17;1.33;;;;;;;;;;4998879;28;20686;-60
2022/06/28 07:18:07;;;;;;;2.43;1.60;;;;;;;;;;5011951;28;20204;-59
2022/06/28 07:20:37;;;;;;;4.20;2.03;;;;;;;;;;4998460;28;20243;-58
2022/06/28 07:23:05;;;;;;;4.97;1.70;;;;;;;;;;5008712;28;20231;-59
2022/06/28 07:25:33;;;;;;;3.83;1.63;;;;;;;;;;5010704;28;20236;-58
2022/06/28 07:28:01;;;;;;;3.67;1.70;;;;;;;;;;4998535;28;20237;-59
2022/06/28 07:30:29;;;;;;;3.23;1.60;;;;;;;;;;4998618;28;20209;-58
2022/06/28 07:32:57;;;;;;;3.70;1.70;;;;;;;;;;4998610;28;20201;-58
2022/06/28 07:35:25;;;;;;;4.10;1.63;;;;;;;;;;5000853;28;20209;-59
2022/06/28 07:37:54;;;;;;;1.97;1.60;;;;;;;;;;4998483;28;20296;-58
2022/06/28 07:40:22;;;;;;;1.50;1.40;;;;;;;;;;4998132;28;20249;-58
2022/06/28 07:42:51;;;;;;;7.63;2.43;;;;;;;;;;4998485;28;20232;-58
2022/06/28 07:45:19;;;;;;;4.77;1.80;;;;;;;;;;5001677;28;20213;-59
2022/06/28 07:47:48;;;;;;;6.57;1.80;;;;;;;;;;4998355;28;20213;-59
2022/06/28 07:53:03;;;;;;;4.97;1.80;;;;;;;;;;4998434;28;20220;-58
2022/06/28 07:55:32;;;;;;;3.53;2.00;;;;;;;;;;4998668;28;20217;-58
2022/06/28 07:58:00;;;;;;;1.67;1.57;;;;;;;;;;4998076;28;20237;-58
2022/06/28 08:00:28;;;;;;;3.77;1.43;;;;;;;;;;4998002;28;20213;-59
2022/06/28 08:02:56;;;;;;;1.83;1.60;;;;;;;;;;4998174;28;20236;-59
2022/06/28 08:05:24;;;;;;;1.67;1.30;;;;;;;;;;4998194;28;20208;-59
2022/06/28 08:07:52;;;;;;;2.00;1.47;;;;;;;;;;4998087;28;20623;-58
2022/06/28 08:10:21;;;;;;;5.07;2.13;;;;;;;;;;4998103;28;20213;-58
2022/06/28 08:12:49;;;;;;;2.33;1.73;;;;;;;;;;4997791;28;20695;-59
2022/06/28 08:15:17;;;;;;;1.97;1.87;;;;;;;;;;4998243;28;20204;-58
2022/06/28 08:17:45;;;;;;;2.57;1.50;;;;;;;;;;5010935;28;20678;-58
2022/06/28 08:20:13;;;;;;;3.80;1.90;;;;;;;;;;4998294;28;20209;-58
2022/06/28 08:22:41;;;;;;;1.70;1.57;;;;;;;;;;4998335;28;20288;-58
2022/06/28 08:25:10;;;;;;;3.13;1.73;;;;;;;;;;5015613;28;20239;-58
2022/06/28 08:27:45;;;;;;;4.50;1.50;;;;;;;;;;4997241;28;20208;-59
2022/06/28 08:30:13;;;;;;;4.00;2.10;;;;;;;;;;4997925;28;20263;-58
2022/06/28 08:32:41;;;;;;;2.50;1.67;;;;;;;;;;4997896;28;20209;-58
2022/06/28 08:35:10;;;;;;;1.73;1.60;;;;;;;;;;4999415;28;20201;-59
2022/06/28 08:37:38;;;;;;;1.40;1.30;;;;;;;;;;5004617;28;20264;-59
2022/06/28 08:40:06;;;;;;;2.20;1.70;;;;;;;;;;5017469;28;20239;-58
2022/06/28 08:42:35;;;;;;;2.60;1.80;;;;;;;;;;5017264;28;20647;-59
2022/06/28 08:45:06;;;;;;;5.00;1.77;;;;;;;;;;5002544;28;20232;-59
2022/06/28 08:47:36;;;;;;;4.53;1.80;;;;;;;;;;4997916;28;20248;-59
2022/06/28 08:50:06;;;;;;;3.67;1.63;;;;;;;;;;4997384;28;20237;-59
2022/06/28 08:52:34;;;;;;;3.63;1.80;;;;;;;;;;5000567;28;20255;-58
2022/06/28 08:55:06;;;;;;;2.37;1.30;;;;;;;;;;5001540;28;20229;-58
2022/06/28 08:57:42;;;;;;;3.07;1.50;;;;;;;;;;5001299;28;20278;-58
2022/06/28 09:00:12;;;;;;;1.73;1.63;;;;;;;;;;5001196;28;20213;-59
2022/06/28 09:02:40;;;;;;;3.10;1.47;;;;;;;;;;5001214;28;20266;-58
2022/06/28 09:05:09;;;;;;;4.03;1.40;;;;;;;;;;5001037;28;20263;-58
2022/06/28 09:07:38;;;;;;;1.67;1.30;;;;;;;;;;5001066;28;20296;-58
2022/06/28 09:10:06;;;;;;;4.70;1.60;;;;;;;;;;5001350;28;20220;-58
2022/06/28 09:13:04;;;;;;;2.90;1.30;;;;;;;;;;5001091;28;20255;-59
2022/06/28 09:15:46;;;;;;;1.73;1.17;;;;;;;;;;5001270;28;20205;-59
2022/06/28 09:18:14;;;;;;;2.57;1.30;;;;;;;;;;5001090;28;20209;-59
2022/06/28 09:20:42;;;;;;;2.07;1.30;;;;;;;;;;5000507;28;20577;-59
2022/06/28 09:23:24;;;;;;;1.97;1.30;;;;;;;;;;5009469;28;20232;-59
2022/06/28 09:25:52;;;;;;;1.30;1.20;;;;;;;;;;5007327;28;20228;-58
2022/06/28 09:28:24;;;;;;;1.20;1.10;;;;;;;;;;5000778;28;20579;-58
2022/06/28 09:30:53;;;;;;;2.33;1.43;;;;;;;;;;5000464;28;20244;-59
2022/06/28 09:33:28;;;;;;;3.37;1.47;;;;;;;;;;5000680;28;20260;-58
2022/06/28 09:35:56;;;;;;;5.50;1.33;;;;;;;;;;5001919;28;20244;-59
2022/06/28 09:38:32;;;;;;;2.13;1.40;;;;;;;;;;5000932;28;20209;-59
2022/06/28 09:41:00;;;;;;;1.40;1.30;;;;;;;;;;5008193;28;20231;-58
2022/06/28 09:43:31;;;;;;;2.17;1.20;;;;;;;;;;5018382;28;20286;-60
2022/06/28 09:46:04;;;;;;;2.00;1.50;;;;;;;;;;5000631;28;20205;-60
2022/06/28 09:48:35;;;;;;;2.63;1.30;;;;;;;;;;5000748;28;20213;-58
2022/06/28 09:51:04;;;;;;;6.83;1.40;;;;;;;;;;4999972;28;20212;-59
2022/06/28 09:53:33;;;;;;;1.70;1.00;;;;;;;;;;5000162;28;20260;-59
2022/06/28 09:56:12;;;;;;;3.17;1.37;;;;;;;;;;5000060;28;20209;-58
2022/06/28 09:58:40;;;;;;;1.80;1.40;;;;;;;;;;5006782;28;20290;-58
2022/06/28 10:01:10;;;;;;;3.83;1.43;;;;;;;;;;5019614;28;20650;-58
2022/06/28 10:03:38;;;;;;;2.63;1.13;;;;;;;;;;5019619;28;20274;-58
2022/06/28 10:06:07;;;;;;;2.67;1.60;;;;;;;;;;5019380;28;20608;-58
2022/06/28 10:08:35;;;;;;;1.50;1.40;;;;;;;;;;5019666;28;20204;-58
2022/06/28 10:11:02;;;;;;;1.40;1.20;;;;;;;;;;5019329;28;20275;-58
2022/06/28 10:16:46;;;;;;;2.00;1.20;;;;;;;;;;5019645;28;20208;-58
2022/06/28 10:19:16;;;;;;;2.27;1.23;;;;;;;;;;5012694;28;20254;-58
2022/06/28 10:21:44;;;;;;;3.30;1.37;;;;;;;;;;5010783;28;20200;-58
2022/06/28 10:24:13;;;;;;;1.40;1.30;;;;;;;;;;5019384;28;20228;-58
2022/06/28 10:26:45;;;;;;;4.70;1.30;;;;;;;;;;5007578;28;20726;-58
2022/06/28 10:29:15;;;;;;;1.90;1.00;;;;;;;;;;5010408;28;20208;-58
2022/06/28 10:31:44;;;;;;;3.00;1.30;;;;;;;;;;5011805;28;20201;-60
2022/06/28 10:34:15;;;;;;;1.80;1.00;;;;;;;;;;5007307;28;20244;-58
2022/06/28 10:36:48;;;;;;;2.67;1.40;;;;;;;;;;5008473;28;20280;-58
2022/06/28 10:39:17;;;;;;;2.00;1.00;;;;;;;;;;5012128;28;20638;-58
2022/06/28 10:41:46;;;;;;;1.57;1.10;;;;;;;;;;5005289;28;20240;-58
2022/06/28 10:44:15;;;;;;;1.70;1.50;;;;;;;;;;5001887;28;20237;-59
2022/06/28 10:46:48;;;;;;;2.50;1.30;;;;;;;;;;4999220;28;20625;-60
2022/06/28 10:49:17;;;;;;;3.47;1.53;;;;;;;;;;4999476;28;20242;-59
2022/06/28 10:52:03;;;;;;;1.93;1.40;;;;;;;;;;4999033;28;20265;-59
2022/06/28 10:54:31;;;;;;;1.50;1.40;;;;;;;;;;4999501;28;20263;-60
2022/06/28 10:57:00;;;;;;;2.63;1.10;;;;;;;;;;4998800;28;20720;-61
2022/06/28 10:59:36;;;;;;;4.40;1.30;;;;;;;;;;4999404;28;20209;-61
2022/06/28 11:02:05;;;;;;;2.87;1.40;;;;;;;;;;5006879;28;20207;-61
2022/06/28 11:04:34;;;;;;;1.37;1.23;;;;;;;;;;5018580;28;20235;-61
2022/06/28 11:07:05;;;;;;;3.17;1.60;;;;;;;;;;5018337;28;20208;-61
2022/06/28 11:09:37;;;;;;;3.43;1.40;;;;;;;;;;5018878;28;20208;-61
2022/06/28 11:12:06;;;;;;;4.07;1.70;;;;;;;;;;5018420;28;20281;-60
2022/06/28 11:14:36;;;;;;;5.07;1.20;;;;;;;;;;5017947;28;20229;-60
2022/06/28 11:17:16;;;;;;;4.90;2.40;;;;;;;;;;5018206;28;20212;-58
2022/06/28 11:19:52;;;;;;;1.57;1.47;;;;;;;;;;4999488;28;20213;-59
2022/06/28 11:22:24;;;;;;;1.10;1.00;;;;;;;;;;4998569;28;20245;-60
2022/06/28 11:24:52;;;;;;;4.33;1.70;;;;;;;;;;5019297;28;20235;-60
2022/06/28 11:27:20;;;;;;;3.07;2.00;;;;;;;;;;4998367;28;20262;-60
2022/06/28 11:29:48;;;;;;;3.70;1.37;;;;;;;;;;4998746;28;20215;-60
2022/06/28 11:32:19;;;;;;;5.03;1.40;;;;;;;;;;4998769;28;20215;-60
2022/06/28 11:35:01;;;;;;;3.53;1.30;;;;;;;;;;5001291;28;20721;-60
2022/06/28 11:37:30;;;;;;;2.77;1.00;;;;;;;;;;4998094;28;20639;-60
2022/06/28 11:39:59;;;;;;;1.60;1.00;;;;;;;;;;4998746;28;20243;-60
2022/06/28 11:42:28;;;;;;;1.13;0.90;;;;;;;;;;4998269;28;20668;-60
2022/06/28 11:44:56;;;;;;;1.70;1.00;;;;;;;;;;5001584;28;20236;-60
2022/06/28 11:47:26;;;;;;;1.23;0.90;;;;;;;;;;4998158;28;20219;-60
2022/06/28 11:50:14;;;;;;;1.80;1.60;;;;;;;;;;4998329;28;20247;-60
2022/06/28 11:52:47;;;;;;;5.90;1.67;;;;;;;;;;5007468;28;20626;-59
2022/06/28 11:55:15;;;;;;;2.17;1.43;;;;;;;;;;5017831;28;20272;-63
2022/06/28 11:57:44;;;;;;;1.43;1.03;;;;;;;;;;5017744;28;20238;-62
2022/06/28 12:00:14;;;;;;;2.13;1.10;;;;;;;;;;5017869;28;20211;-62
2022/06/28 12:02:45;;;;;;;3.53;1.10;;;;;;;;;;5017859;28;20729;-61
2022/06/28 12:05:14;;;;;;;3.10;1.00;;;;;;;;;;5017674;28;20236;-62
2022/06/28 12:07:43;;;;;;;0.70;0.70;;;;;;;;;;5017791;28;20216;-62
2022/06/28 12:10:20;;;;;;;1.10;1.00;;;;;;;;;;5017558;28;20208;-61
2022/06/28 12:12:48;;;;;;;1.27;1.17;;;;;;;;;;5017613;28;20223;-63
2022/06/28 12:15:23;;;;;;;1.00;0.90;;;;;;;;;;5017625;28;20272;-64
2022/06/28 12:17:53;;;;;;;1.70;1.13;;;;;;;;;;5013566;28;20275;-62
2022/06/28 12:20:21;;;;;;;5.40;1.30;;;;;;;;;;4997611;28;20617;-61
2022/06/28 12:22:56;;;;;;;1.80;0.90;;;;;;;;;;5000497;28;20258;-62
2022/06/28 12:25:24;;;;;;;1.83;1.20;;;;;;;;;;5013672;28;20278;-61
2022/06/28 12:27:52;;;;;;;2.13;1.00;;;;;;;;;;5001698;28;20255;-62
2022/06/28 12:30:21;;;;;;;0.80;0.80;;;;;;;;;;5001987;28;20208;-62
2022/06/28 12:32:58;;;;;;;2.30;1.00;;;;;;;;;;5009285;28;20573;-62
2022/06/28 12:35:26;;;;;;;1.97;0.97;;;;;;;;;;5007178;28;20216;-61
2022/06/28 12:37:55;;;;;;;1.60;1.07;;;;;;;;;;5001846;28;20215;-61
2022/06/28 12:40:24;;;;;;;3.40;1.20;;;;;;;;;;5001404;28;20556;-61
2022/06/28 12:42:52;;;;;;;10.47;8.10;;;;;;;;;;5001846;28;20214;-61
2022/06/28 12:45:21;;;;;;;2.53;2.33;;;;;;;;;;5004324;28;20288;-61
2022/06/28 12:47:49;;;;;;;1.80;1.70;;;;;;;;;;5001636;28;20220;-60
2022/06/28 12:50:18;;;;;;;2.40;2.00;;;;;;;;;;5001425;28;20208;-61
2022/06/28 12:52:47;;;;;;;2.27;1.90;;;;;;;;;;5001375;28;20268;-61
2022/06/28 12:55:15;;;;;;;1.40;1.30;;;;;;;;;;5001130;28;20687;-60
2022/06/28 12:57:44;;;;;;;1.53;1.20;;;;;;;;;;5001363;28;20596;-60
2022/06/28 13:00:14;;;;;;;2.10;0.90;;;;;;;;;;5001419;28;20213;-61
2022/06/28 13:02:47;;;;;;;2.27;0.90;;;;;;;;;;5001299;28;20210;-61
2022/06/28 13:05:15;;;;;;;1.50;1.20;;;;;;;;;;5008103;28;20290;-60
2022/06/28 13:07:45;;;;;;;0.77;0.77;;;;;;;;;;5020946;28;20208;-60
2022/06/28 13:10:14;;;;;;;2.37;1.00;;;;;;;;;;5020724;28;20618;-60
2022/06/28 13:12:42;;;;;;;0.90;0.90;;;;;;;;;;5020903;28;20205;-60
2022/06/28 13:15:10;;;;;;;2.67;0.90;;;;;;;;;;5020585;28;20742;-57
2022/06/28 13:17:38;;;;;;;1.87;1.00;;;;;;;;;;5017661;28;20235;-57
2022/06/28 13:20:07;;;;;;;0.87;0.87;;;;;;;;;;5000570;28;20257;-57
2022/06/28 13:22:56;;;;;;;0.67;0.67;;;;;;;;;;5005025;28;20216;-57
2022/06/28 13:25:24;;;;;;;2.30;1.10;;;;;;;;;;5015124;28;20235;-57
2022/06/28 13:27:52;;;;;;;1.73;1.30;;;;;;;;;;5001083;28;20219;-57
2022/06/28 13:30:20;;;;;;;2.30;1.20;;;;;;;;;;5001004;28;20247;-57
2022/06/28 13:32:48;;;;;;;0.97;0.70;;;;;;;;;;5000373;28;20222;-57
2022/06/28 13:35:17;;;;;;;2.20;0.90;;;;;;;;;;5001645;28;20229;-58
2022/06/28 13:37:45;;;;;;;1.43;0.80;;;;;;;;;;5015742;28;20722;-57
2022/06/28 13:40:14;;;;;;;2.17;1.40;;;;;;;;;;5005621;28;20212;-57
2022/06/28 13:42:42;;;;;;;1.10;1.00;;;;;;;;;;5009145;28;20226;-57
2022/06/28 13:45:12;;;;;;;1.20;1.10;;;;;;;;;;5020195;28;20269;-57
2022/06/28 13:47:40;;;;;;;1.90;1.07;;;;;;;;;;5019987;28;20734;-57
2022/06/28 13:50:08;;;;;;;1.17;0.97;;;;;;;;;;5019675;28;20273;-57
2022/06/28 13:52:42;;;;;;;3.90;1.10;;;;;;;;;;5018219;28;20225;-58
2022/06/28 13:55:13;;;;;;;1.10;0.97;;;;;;;;;;5010784;28;20217;-58
2022/06/28 13:57:42;;;;;;;3.00;1.40;;;;;;;;;;5019957;28;20243;-58
2022/06/28 14:00:11;;;;;;;3.47;1.20;;;;;;;;;;5013457;28;20204;-58
2022/06/28 14:02:39;;;;;;;2.43;0.93;;;;;;;;;;5020125;28;20246;-57
2022/06/28 14:05:07;;;;;;;3.13;1.10;;;;;;;;;;5019507;28;20274;-58
2022/06/28 14:07:43;;;;;;;1.30;1.03;;;;;;;;;;5016773;28;20199;-58
2022/06/28 14:10:11;;;;;;;1.80;0.90;;;;;;;;;;5019231;28;20248;-58
2022/06/28 14:12:39;;;;;;;0.83;0.83;;;;;;;;;;5021872;28;20197;-57
2022/06/28 14:15:10;;;;;;;0.90;0.80;;;;;;;;;;4998642;28;20232;-57
2022/06/28 14:17:38;;;;;;;2.90;0.93;;;;;;;;;;5017385;28;20655;-58
2022/06/28 14:20:06;;;;;;;3.10;1.40;;;;;;;;;;5032351;28;20204;-58
2022/06/28 14:22:35;;;;;;;1.70;1.20;;;;;;;;;;5001063;28;20248;-57
2022/06/28 14:25:10;;;;;;;1.30;0.80;;;;;;;;;;4999222;28;20637;-57
2022/06/28 14:27:38;;;;;;;0.80;0.80;;;;;;;;;;5007096;28;20212;-57
2022/06/28 14:30:27;;;;;;;3.13;0.90;;;;;;;;;;4999235;28;20210;-57
2022/06/28 14:32:55;;;;;;;1.40;0.80;;;;;;;;;;4999259;28;20679;-57
2022/06/28 14:35:28;;;;;;;0.87;0.80;;;;;;;;;;5029175;28;20328;-57
2022/06/28 14:38:16;;;;;;;0.80;0.60;;;;;;;;;;5001518;28;20206;-57
2022/06/28 14:40:44;;;;;;;1.63;1.00;;;;;;;;;;4997784;28;20237;-57
2022/06/28 14:43:12;;;;;;;0.80;0.80;;;;;;;;;;4999097;28;20238;-57
2022/06/28 14:45:42;;;;;;;0.93;0.83;;;;;;;;;;5013718;28;20222;-57
2022/06/28 14:48:20;;;;;;;0.80;0.80;;;;;;;;;;5003712;28;20628;-57
2022/06/28 14:50:48;;;;;;;2.13;1.00;;;;;;;;;;4997646;28;20221;-57
2022/06/28 14:53:24;;;;;;;1.77;0.90;;;;;;;;;;4998302;28;20228;-57
2022/06/28 14:55:53;;;;;;;2.17;0.90;;;;;;;;;;5001577;28;20210;-57
2022/06/28 14:58:21;;;;;;;5.00;1.30;;;;;;;;;;4998867;28;20236;-57
2022/06/28 15:00:59;;;;;;;2.27;1.00;;;;;;;;;;4998900;28;20303;-56
2022/06/28 15:03:27;;;;;;;1.00;1.00;;;;;;;;;;5011645;28;20765;-56
2022/06/28 15:05:55;;;;;;;1.57;1.10;;;;;;;;;;5024489;28;20301;-56
2022/06/28 15:08:28;;;;;;;1.70;1.00;;;;;;;;;;5015850;28;20203;-56